createdAt,value
2022-12-27T00:04:50.112Z,2.10
2022-12-27T00:09:51.655Z,2.65
2022-12-27T00:14:53.176Z,1.75
2022-12-27T00:19:54.714Z,2.30
2022-12-27T00:24:56.293Z,2.05
2022-12-27T00:29:58.124Z,2.00
2022-12-27T00:34:59.593Z,2.47
2022-12-27T00:40:01.186Z,1.83
2022-12-27T00:45:02.714Z,1.88
2022-12-27T00:50:05.010Z,2.30
2022-12-27T00:55:06.858Z,2.20
2022-12-27T01:00:10.623Z,1.70
2022-12-27T01:05:12.332Z,1.85
2022-12-27T01:10:14.017Z,3.17
2022-12-27T01:15:15.593Z,3.10
2022-12-27T01:20:17.181Z,1.90
2022-12-27T01:25:18.704Z,2.35
2022-12-27T01:30:20.191Z,2.85
2022-12-27T01:35:21.651Z,2.55
2022-12-27T01:40:23.306Z,2.22
2022-12-27T01:45:43.667Z,2.10
2022-12-27T01:50:49.285Z,2.38
2022-12-27T01:55:56.865Z,2.92
2022-12-27T02:00:59.270Z,2.17
2022-12-27T02:06:03.076Z,2.35
2022-12-27T02:11:06.185Z,2.35
2022-12-27T02:16:18.598Z,2.28
2022-12-27T02:21:45.933Z,2.20
2022-12-27T02:27:07.904Z,2.13
2022-12-27T02:32:16.955Z,3.10
2022-12-27T02:37:20.811Z,1.92
2022-12-27T02:42:41.029Z,1.90
2022-12-27T02:48:03.937Z,2.22
2022-12-27T02:53:08.368Z,2.15
2022-12-27T02:58:32.268Z,2.30
2022-12-27T03:03:47.145Z,2.22
2022-12-27T03:08:59.662Z,2.53
2022-12-27T03:14:53.967Z,2.80
2022-12-27T03:20:21.787Z,2.72
2022-12-27T03:25:31.013Z,2.17
2022-12-27T03:30:51.727Z,2.28
2022-12-27T03:36:20.847Z,2.55
2022-12-27T03:41:49.799Z,2.47
2022-12-27T03:46:59.507Z,2.22
2022-12-27T03:52:31.668Z,2.63
2022-12-27T03:57:33.362Z,2.35
2022-12-27T04:02:35.015Z,2.42
2022-12-27T04:07:36.651Z,2.70
2022-12-27T04:12:57.122Z,2.58
2022-12-27T04:18:17.099Z,2.45
2022-12-27T04:23:37.401Z,2.30
2022-12-27T04:28:57.980Z,2.45
2022-12-27T04:34:18.161Z,3.20
2022-12-27T04:39:19.681Z,2.20
2022-12-27T04:44:39.825Z,2.85
2022-12-27T04:50:00.168Z,3.05
2022-12-27T04:55:18.571Z,2.60
2022-12-27T05:00:40.354Z,2.50
2022-12-27T05:05:44.039Z,2.70
2022-12-27T05:11:04.194Z,2.65
2022-12-27T05:16:06.290Z,3.08
2022-12-27T05:21:08.362Z,2.97
2022-12-27T05:26:09.832Z,2.95
2022-12-27T05:31:11.402Z,3.15
2022-12-27T05:36:13.515Z,2.40
2022-12-27T05:41:15.206Z,3.20
2022-12-27T05:46:20.154Z,2.75
2022-12-27T05:51:22.015Z,2.63
2022-12-27T05:56:23.527Z,2.60
2022-12-27T06:01:25.215Z,2.63
2022-12-27T06:06:26.814Z,2.33
2022-12-27T06:11:28.294Z,2.55
2022-12-27T06:16:29.823Z,2.33
2022-12-27T06:21:31.367Z,2.42
2022-12-27T06:26:33.347Z,2.63
2022-12-27T06:31:35.161Z,2.75
2022-12-27T06:36:36.666Z,3.17
2022-12-27T06:41:38.162Z,2.20
2022-12-27T06:46:39.639Z,3.00
2022-12-27T06:51:41.257Z,2.80
2022-12-27T06:56:43.004Z,2.75
2022-12-27T07:01:44.581Z,2.83
2022-12-27T07:06:46.255Z,2.20
2022-12-27T07:11:47.877Z,2.60
2022-12-27T07:16:50.125Z,2.88
2022-12-27T07:21:51.704Z,2.55
2022-12-27T07:26:53.233Z,2.50
2022-12-27T07:31:54.802Z,2.55
2022-12-27T07:36:56.329Z,3.08
2022-12-27T07:42:00.725Z,2.75
2022-12-27T07:47:05.283Z,3.47
2022-12-27T07:52:06.741Z,2.33
2022-12-27T07:57:08.295Z,3.05
2022-12-27T08:02:10.094Z,2.60
2022-12-27T08:07:15.404Z,2.70
2022-12-27T08:12:17.064Z,2.60
2022-12-27T08:17:22.701Z,2.85
2022-12-27T08:22:24.761Z,2.72
2022-12-27T08:27:26.420Z,2.40
2022-12-27T08:32:27.932Z,3.30
2022-12-27T08:37:29.535Z,2.67
2022-12-27T08:42:31.057Z,2.75
2022-12-27T08:47:32.569Z,2.67
2022-12-27T08:52:35.275Z,2.67
2022-12-27T08:57:36.768Z,2.60
2022-12-27T09:02:38.449Z,2.88
2022-12-27T09:07:40.053Z,2.92
2022-12-27T09:12:41.919Z,3.00
2022-12-27T09:17:43.848Z,2.75
2022-12-27T09:22:45.498Z,2.33
2022-12-27T09:27:46.988Z,2.22
2022-12-27T09:32:48.534Z,3.42
2022-12-27T09:37:50.867Z,3.28
2022-12-27T09:43:19.488Z,3.00
2022-12-27T09:48:39.646Z,2.78
2022-12-27T09:54:00.206Z,2.80
2022-12-27T09:59:07.405Z,3.25
2022-12-27T10:04:13.399Z,2.90
2022-12-27T10:09:46.011Z,3.17
2022-12-27T10:15:09.352Z,3.05
2022-12-27T10:20:20.194Z,3.25
2022-12-27T10:25:24.755Z,2.90
2022-12-27T10:30:30.615Z,2.72
2022-12-27T10:35:32.111Z,2.88
2022-12-27T10:40:49.040Z,2.13
2022-12-27T10:45:50.556Z,3.55
2022-12-27T10:50:59.751Z,2.67
2022-12-27T10:56:20.898Z,3.33
2022-12-27T11:01:24.291Z,2.95
2022-12-27T11:06:26.221Z,3.55
2022-12-27T11:11:27.868Z,2.70
2022-12-27T11:16:32.236Z,3.20
2022-12-27T11:21:39.145Z,3.45
2022-12-27T11:26:53.928Z,3.47
2022-12-27T11:31:56.864Z,3.13
2022-12-27T11:37:14.087Z,4.35
2022-12-27T11:42:43.068Z,4.90
2022-12-27T11:47:44.483Z,5.45
2022-12-27T11:53:01.153Z,5.60
2022-12-27T11:58:48.922Z,5.25
2022-12-27T12:04:28.013Z,4.68
2022-12-27T12:09:34.500Z,4.25
2022-12-27T12:14:54.243Z,4.43
2022-12-27T12:20:17.443Z,4.78
2022-12-27T12:25:41.873Z,4.50
2022-12-27T12:30:56.068Z,5.07
2022-12-27T12:36:18.018Z,5.38
2022-12-27T12:41:42.756Z,5.25
2022-12-27T12:46:57.691Z,4.40
2022-12-27T12:52:38.082Z,5.22
2022-12-27T12:58:05.789Z,6.35
2022-12-27T13:03:17.843Z,5.57
2022-12-27T13:08:42.527Z,6.32
2022-12-27T13:14:02.800Z,6.38
2022-12-27T13:19:22.416Z,7.40
2022-12-27T13:24:51.667Z,7.63
2022-12-27T13:30:24.088Z,7.95
2022-12-27T13:36:03.115Z,7.03
2022-12-27T13:41:30.691Z,7.93
2022-12-27T13:46:58.993Z,8.13
2022-12-27T13:52:29.587Z,8.57
2022-12-27T13:57:38.924Z,8.20
2022-12-27T14:03:04.973Z,10.18
2022-12-27T14:08:28.150Z,8.50
2022-12-27T14:13:42.437Z,9.45
2022-12-27T14:18:58.718Z,8.45
2022-12-27T14:24:25.403Z,8.80
2022-12-27T14:30:04.819Z,9.63
2022-12-27T14:35:09.246Z,7.47
2022-12-27T14:40:41.508Z,8.15
2022-12-27T14:46:01.293Z,7.38
2022-12-27T14:52:00.019Z,6.88
2022-12-27T14:57:19.389Z,7.03
2022-12-27T15:02:41.671Z,8.25
2022-12-27T15:08:00.991Z,8.32
2022-12-27T15:13:02.481Z,8.13
2022-12-27T15:18:21.680Z,8.60
2022-12-27T15:23:23.151Z,8.77
2022-12-27T15:28:36.772Z,7.13
2022-12-27T15:34:26.698Z,6.20
2022-12-27T15:39:34.132Z,6.57
2022-12-27T15:45:00.602Z,6.47
2022-12-27T15:50:47.866Z,6.10
2022-12-27T15:56:08.191Z,6.22
2022-12-27T16:01:29.678Z,6.80
2022-12-27T16:06:34.429Z,6.63
2022-12-27T16:12:35.952Z,7.22
2022-12-27T16:17:56.223Z,6.85
2022-12-27T16:23:02.909Z,7.88
2022-12-27T16:28:04.369Z,8.95
2022-12-27T16:33:10.867Z,7.60
2022-12-27T16:38:22.190Z,9.80
2022-12-27T16:43:38.871Z,9.73
2022-12-27T16:49:02.024Z,9.25
2022-12-27T16:54:26.701Z,9.68
2022-12-27T17:00:05.670Z,8.93
2022-12-27T17:05:34.494Z,9.88
2022-12-27T17:10:42.138Z,10.18
2022-12-27T17:15:56.714Z,10.98
2022-12-27T17:21:04.360Z,11.40
2022-12-27T17:26:22.205Z,9.23
2022-12-27T17:31:47.085Z,10.45
2022-12-27T17:36:53.253Z,11.68
2022-12-27T17:42:23.008Z,9.63
2022-12-27T17:48:03.455Z,10.63
2022-12-27T17:53:30.542Z,11.57
2022-12-27T17:58:34.483Z,10.43
2022-12-27T18:03:41.815Z,11.05
2022-12-27T18:08:47.181Z,11.52
2022-12-27T18:13:54.442Z,10.45
2022-12-27T18:18:59.923Z,10.15
2022-12-27T18:24:01.514Z,10.23
2022-12-27T18:29:05.040Z,11.02
2022-12-27T18:34:19.534Z,10.00
2022-12-27T18:39:31.203Z,12.07
2022-12-27T18:44:47.046Z,10.15
2022-12-27T18:49:55.545Z,10.23
2022-12-27T18:55:28.979Z,9.18
2022-12-27T19:00:31.052Z,8.15
2022-12-27T19:05:32.848Z,8.48
2022-12-27T19:10:34.655Z,8.90
2022-12-27T19:15:44.074Z,7.50
2022-12-27T19:20:54.484Z,6.95
2022-12-27T19:26:00.276Z,7.90
2022-12-27T19:31:21.534Z,7.10
2022-12-27T19:36:47.441Z,6.65
2022-12-27T19:41:50.255Z,6.30
2022-12-27T19:46:51.741Z,6.32
2022-12-27T19:51:56.406Z,7.25
2022-12-27T19:56:57.942Z,7.40
2022-12-27T20:01:59.549Z,7.40
2022-12-27T20:07:01.542Z,7.05
2022-12-27T20:12:03.210Z,6.88
2022-12-27T20:17:04.891Z,8.85
2022-12-27T20:22:06.565Z,5.78
2022-12-27T20:27:08.098Z,6.68
2022-12-27T20:32:09.720Z,6.85
2022-12-27T20:37:11.392Z,6.03
2022-12-27T20:42:12.916Z,5.80
2022-12-27T20:47:14.513Z,8.10
2022-12-27T20:52:16.991Z,6.78
2022-12-27T20:57:18.568Z,5.40
2022-12-27T21:02:20.270Z,5.57
2022-12-27T21:07:22.086Z,5.40
2022-12-27T21:12:23.666Z,6.03
2022-12-27T21:17:25.210Z,5.38
2022-12-27T21:22:26.697Z,5.50
2022-12-27T21:27:28.272Z,6.63
2022-12-27T21:32:30.009Z,5.70
2022-12-27T21:37:31.523Z,5.43
2022-12-27T21:42:33.130Z,5.72
2022-12-27T21:47:34.680Z,4.90
2022-12-27T21:52:36.241Z,5.78
2022-12-27T21:57:37.733Z,5.10
2022-12-27T22:02:39.368Z,5.80
2022-12-27T22:07:41.005Z,5.20
2022-12-27T22:12:42.554Z,4.88
2022-12-27T22:17:44.063Z,4.65
2022-12-27T22:22:45.654Z,5.18
2022-12-27T22:27:47.186Z,5.10
2022-12-27T22:32:48.714Z,5.43
2022-12-27T22:37:50.186Z,4.30
2022-12-27T22:42:51.703Z,4.53
2022-12-27T22:47:53.287Z,4.57
2022-12-27T22:52:54.826Z,4.72
2022-12-27T22:57:56.364Z,4.82
2022-12-27T23:02:57.878Z,4.55
2022-12-27T23:08:05.899Z,4.80
2022-12-27T23:13:08.380Z,4.88
2022-12-27T23:18:09.914Z,5.35
2022-12-27T23:23:11.450Z,5.00
2022-12-27T23:28:13.030Z,4.95
2022-12-27T23:33:14.656Z,4.95
2022-12-27T23:38:16.150Z,5.10
2022-12-27T23:43:50.621Z,4.82
2022-12-27T23:48:39.065Z,5.50
2022-12-27T23:53:40.660Z,5.70
2022-12-27T23:58:42.791Z,6.00
